To NAV CANADA Home Page Login to a new session Search on AWWS site Feedback and Comments Disclaimer Vers la page française équivalente Tips FAQ What's new on the site To the Forecasts and Observations / NOTAM section To "File a Flight Plan" website Publications and other links Update of the User's profile FIC Telephone Numbers My Weather Data Folder Route Weather Data Regional Weather Data Local Weather Data To the Forecasts and Observations / NOTAM section
Request Generated 02/08/2016 at 16:28:59 UTC . Weather information available at that time is displayed.

METAR/TAF

TORONTO/LESTER B. PEARSON INTL/ON    

METAR CYYZ 081600Z 09012G18KT 15SM FEW025 SCT060 OVC075 04/00 A2967
RMK CU1SC2AS5 SLP053=
SPECI CYYZ 081522Z 09011G17KT 15SM FEW010 SCT025 OVC070 03/00 A2968
RMK SF2SC2AS4 SLP058=
METAR CYYZ 081500Z 09013KT 15SM BKN009 OVC075 03/00 A2968 RMK SF5AS3
SLP058=
METAR CYYZ 081400Z 08012KT 12SM OVC009 02/M00 A2969 RMK SF8 SLP061=

TAF CYYZ 081439Z 0815/0918 08012KT P6SM SCT009 BKN050 BKN100 TEMPO
0815/0817 BKN009 OVC050
FM081900 08015G25KT P6SM BKN050 OVC100 TEMPO 0819/0821 P6SM -SHRA
SCT009 OVC020
FM082100 08015G25KT P6SM OVC050 TEMPO 0821/0903 5SM -SHRASN
OVC015
FM090300 08015KT P6SM OVC015 TEMPO 0903/0905 2SM -SHSN
FM090500 08015KT 2SM -SHSN OVC008
FM090900 07015KT 2SM -SHSN OVC005 PROB30 0909/0915 P6SM -FZDZ
FM091600 07010KT 5SM -SHSNRA OVC010
RMK NXT FCST BY 081800Z=
Your time UTC time
Weather data provided by Environment Canada and NAV CANADA